Time;durP1;ratioP1;P1;durP2;ratioP2;P2;SDS_P1;SDS_P2;PMS_P1;PMS_P2;Temp;Humidity;BMP_temperature;BMP_pressure;BME280_temperature;BME280_humidity;BME280_pressure;Samples;Min_cycle;Max_cycle;Signal;HPM_P1;HPM_P2
2023/08/26 00:00:25;;;;;;;51.60;43.43;;;;;;;;;;5088365;28;20447;-67
2023/08/26 00:02:51;;;;;;;56.30;45.50;;;;;;;;;;5093081;28;20490;-67
2023/08/26 00:05:18;;;;;;;49.60;43.60;;;;;;;;;;5101054;28;20486;-68
2023/08/26 00:07:44;;;;;;;50.93;43.80;;;;;;;;;;5095784;28;20488;-68
2023/08/26 00:10:10;;;;;;;55.40;44.27;;;;;;;;;;5092528;28;20527;-68
2023/08/26 00:12:37;;;;;;;52.90;42.63;;;;;;;;;;5101724;28;20451;-67
2023/08/26 00:15:05;;;;;;;49.67;42.47;;;;;;;;;;5099113;28;20481;-68
2023/08/26 00:17:33;;;;;;;49.00;43.40;;;;;;;;;;5096156;28;20490;-68
2023/08/26 00:19:59;;;;;;;51.37;43.80;;;;;;;;;;5095563;28;20475;-67
2023/08/26 00:22:25;;;;;;;55.47;45.30;;;;;;;;;;5098215;28;20519;-68
2023/08/26 00:24:52;;;;;;;57.27;46.30;;;;;;;;;;5099124;28;20485;-67
2023/08/26 00:27:18;;;;;;;58.13;45.17;;;;;;;;;;5098862;28;20534;-68
2023/08/26 00:29:44;;;;;;;56.17;46.77;;;;;;;;;;5093969;28;20443;-68
2023/08/26 00:32:12;;;;;;;59.50;45.03;;;;;;;;;;5088066;28;20455;-68
2023/08/26 00:34:39;;;;;;;55.37;45.93;;;;;;;;;;5092614;28;20480;-68
2023/08/26 00:37:05;;;;;;;52.60;43.43;;;;;;;;;;5103913;28;20489;-67
2023/08/26 00:39:32;;;;;;;55.73;44.67;;;;;;;;;;5100523;28;20463;-67
2023/08/26 00:41:58;;;;;;;60.93;44.20;;;;;;;;;;5098756;28;20440;-68
2023/08/26 00:44:25;;;;;;;59.30;45.60;;;;;;;;;;5101246;28;20503;-67
2023/08/26 00:46:51;;;;;;;52.53;43.70;;;;;;;;;;5088181;28;20456;-68
2023/08/26 00:49:19;;;;;;;52.90;43.70;;;;;;;;;;5106021;28;20928;-67
2023/08/26 00:51:45;;;;;;;54.37;47.50;;;;;;;;;;5092659;28;20443;-67
2023/08/26 00:54:12;;;;;;;55.10;45.63;;;;;;;;;;5094754;28;20483;-68
2023/08/26 00:56:39;;;;;;;55.60;46.43;;;;;;;;;;5094595;28;20515;-68
2023/08/26 00:59:05;;;;;;;53.90;45.70;;;;;;;;;;5100971;28;20924;-68
2023/08/26 01:01:32;;;;;;;54.97;44.30;;;;;;;;;;5102540;28;20533;-68
2023/08/26 01:03:59;;;;;;;49.33;41.43;;;;;;;;;;5102375;28;20447;-68
2023/08/26 01:06:26;;;;;;;52.97;43.20;;;;;;;;;;5108241;28;20540;-68
2023/08/26 01:08:53;;;;;;;50.63;42.37;;;;;;;;;;5099392;28;20625;-69
2023/08/26 01:11:23;;;;;;;52.27;41.87;;;;;;;;;;5091417;28;20514;-68
2023/08/26 01:13:54;;;;;;;50.07;41.30;;;;;;;;;;5097674;28;21033;-68
2023/08/26 01:16:23;;;;;;;49.37;39.30;;;;;;;;;;5102658;28;20522;-68
2023/08/26 01:18:50;;;;;;;44.47;37.07;;;;;;;;;;5102286;28;21039;-68
2023/08/26 01:21:19;;;;;;;50.83;39.53;;;;;;;;;;5095920;28;20450;-68
2023/08/26 01:23:47;;;;;;;48.80;38.80;;;;;;;;;;5101636;28;20451;-67
2023/08/26 01:26:15;;;;;;;43.30;35.70;;;;;;;;;;5099824;28;20503;-66
2023/08/26 01:28:41;;;;;;;46.23;37.60;;;;;;;;;;5096077;28;20535;-68
2023/08/26 01:31:10;;;;;;;48.27;37.60;;;;;;;;;;5096619;28;20446;-68
2023/08/26 01:33:38;;;;;;;49.73;37.17;;;;;;;;;;5101409;28;20646;-69
2023/08/26 01:36:05;;;;;;;45.20;34.87;;;;;;;;;;5103240;28;20453;-69
2023/08/26 01:38:32;;;;;;;39.70;35.37;;;;;;;;;;5101352;28;20523;-68
2023/08/26 01:41:02;;;;;;;40.83;34.37;;;;;;;;;;5105609;28;20469;-68
2023/08/26 01:43:28;;;;;;;43.93;35.13;;;;;;;;;;5101517;28;20516;-69
2023/08/26 01:45:55;;;;;;;40.27;33.83;;;;;;;;;;5111135;28;20538;-68
2023/08/26 01:48:21;;;;;;;39.30;33.87;;;;;;;;;;5101840;28;20586;-67
2023/08/26 01:50:47;;;;;;;39.87;33.03;;;;;;;;;;5102120;28;20478;-67
2023/08/26 01:53:14;;;;;;;44.23;36.70;;;;;;;;;;5104207;28;20530;-68
2023/08/26 01:55:40;;;;;;;38.07;32.67;;;;;;;;;;5105919;28;20507;-69
2023/08/26 01:58:08;;;;;;;42.30;36.83;;;;;;;;;;5098491;28;20523;-69
2023/08/26 02:00:34;;;;;;;41.10;35.03;;;;;;;;;;5101440;28;20897;-68
2023/08/26 02:03:01;;;;;;;38.40;33.43;;;;;;;;;;5094375;28;20508;-68
2023/08/26 02:05:27;;;;;;;44.03;33.37;;;;;;;;;;5096193;28;20443;-69
2023/08/26 02:07:53;;;;;;;46.87;37.60;;;;;;;;;;5099636;28;20455;-68
2023/08/26 02:10:20;;;;;;;45.57;35.27;;;;;;;;;;5100776;28;20887;-68
2023/08/26 02:12:46;;;;;;;48.57;36.60;;;;;;;;;;5100805;28;20471;-68
2023/08/26 02:15:14;;;;;;;43.43;35.47;;;;;;;;;;5098639;28;20487;-68
2023/08/26 02:17:41;;;;;;;43.13;35.37;;;;;;;;;;5101713;28;20550;-68
2023/08/26 02:20:09;;;;;;;41.03;35.03;;;;;;;;;;5098256;28;20457;-68
2023/08/26 02:22:35;;;;;;;41.73;34.73;;;;;;;;;;5100115;28;20455;-68
2023/08/26 02:25:01;;;;;;;40.93;32.53;;;;;;;;;;5105131;28;20493;-67
2023/08/26 02:27:28;;;;;;;38.60;32.20;;;;;;;;;;5102375;28;21074;-68
2023/08/26 02:29:54;;;;;;;44.23;33.33;;;;;;;;;;5107059;28;20518;-68
2023/08/26 02:32:22;;;;;;;43.17;32.50;;;;;;;;;;5095650;28;20518;-68
2023/08/26 02:34:48;;;;;;;38.87;32.20;;;;;;;;;;5101360;28;20585;-68
2023/08/26 02:37:15;;;;;;;38.67;32.00;;;;;;;;;;5093399;28;21287;-69
2023/08/26 02:39:41;;;;;;;39.50;33.67;;;;;;;;;;5094619;28;20514;-66
2023/08/26 02:42:07;;;;;;;40.90;34.60;;;;;;;;;;5110041;28;20549;-67
2023/08/26 02:44:34;;;;;;;38.10;31.57;;;;;;;;;;5108776;28;20450;-67
2023/08/26 02:47:00;;;;;;;41.77;32.17;;;;;;;;;;5095316;28;20504;-67
2023/08/26 02:49:28;;;;;;;41.23;32.07;;;;;;;;;;5098989;28;20939;-67
2023/08/26 02:51:55;;;;;;;46.93;35.07;;;;;;;;;;5098819;28;20489;-67
2023/08/26 02:54:21;;;;;;;38.43;33.40;;;;;;;;;;5097504;28;20563;-67
2023/08/26 02:56:47;;;;;;;41.60;33.53;;;;;;;;;;5109108;28;20518;-67
2023/08/26 02:59:14;;;;;;;41.13;33.20;;;;;;;;;;5099887;28;20465;-66
2023/08/26 03:01:40;;;;;;;39.57;32.63;;;;;;;;;;5093163;28;20523;-67
2023/08/26 03:04:06;;;;;;;36.70;31.20;;;;;;;;;;5096444;28;20519;-67
2023/08/26 03:06:34;;;;;;;39.90;31.30;;;;;;;;;;5096797;28;20637;-67
2023/08/26 03:09:00;;;;;;;45.80;33.20;;;;;;;;;;5097383;28;20523;-67
2023/08/26 03:11:27;;;;;;;39.27;32.47;;;;;;;;;;5105287;28;20458;-68
2023/08/26 03:13:53;;;;;;;36.20;31.77;;;;;;;;;;5101197;28;20892;-67
2023/08/26 03:16:19;;;;;;;39.27;32.77;;;;;;;;;;5101724;28;20510;-68
2023/08/26 03:18:46;;;;;;;42.80;35.77;;;;;;;;;;5102711;28;20504;-68
2023/08/26 03:21:12;;;;;;;40.47;32.30;;;;;;;;;;5100200;28;20991;-68
2023/08/26 03:23:40;;;;;;;41.53;35.80;;;;;;;;;;5099470;28;20515;-68
2023/08/26 03:26:06;;;;;;;41.20;33.70;;;;;;;;;;5103732;28;20619;-67
2023/08/26 03:28:33;;;;;;;38.13;33.53;;;;;;;;;;5092765;28;20518;-66
2023/08/26 03:31:02;;;;;;;37.67;32.03;;;;;;;;;;5099952;28;20888;-68
2023/08/26 03:33:28;;;;;;;40.63;33.90;;;;;;;;;;5101498;28;20554;-68
2023/08/26 03:35:54;;;;;;;41.57;33.50;;;;;;;;;;5096085;28;20574;-68
2023/08/26 03:38:21;;;;;;;42.50;34.80;;;;;;;;;;5095898;28;20518;-68
2023/08/26 03:40:49;;;;;;;39.30;33.50;;;;;;;;;;5097784;28;20538;-68
2023/08/26 03:43:15;;;;;;;40.43;34.17;;;;;;;;;;5103150;28;20541;-68
2023/08/26 03:45:41;;;;;;;41.07;33.97;;;;;;;;;;5100502;28;20523;-68
2023/08/26 03:48:08;;;;;;;37.30;31.60;;;;;;;;;;5101016;28;20819;-68
2023/08/26 03:50:34;;;;;;;36.93;31.50;;;;;;;;;;5096821;28;20498;-68
2023/08/26 03:53:00;;;;;;;37.80;33.00;;;;;;;;;;5107350;28;20506;-68
2023/08/26 03:55:27;;;;;;;37.47;33.37;;;;;;;;;;5108144;28;20521;-68
2023/08/26 03:57:54;;;;;;;39.30;32.63;;;;;;;;;;5100025;28;20549;-66
2023/08/26 04:00:21;;;;;;;39.40;32.93;;;;;;;;;;5100707;28;20515;-67
2023/08/26 04:02:47;;;;;;;37.63;32.93;;;;;;;;;;5106179;28;20514;-67
2023/08/26 04:05:14;;;;;;;44.10;35.50;;;;;;;;;;5099185;28;20886;-67
2023/08/26 04:07:40;;;;;;;40.40;33.97;;;;;;;;;;5093696;28;20451;-67
2023/08/26 04:10:07;;;;;;;37.73;33.60;;;;;;;;;;5099671;28;20546;-68
2023/08/26 04:12:33;;;;;;;39.00;33.20;;;;;;;;;;5091520;28;20465;-67
2023/08/26 04:15:01;;;;;;;39.90;32.73;;;;;;;;;;5094312;28;20475;-67
2023/08/26 04:17:27;;;;;;;43.60;33.73;;;;;;;;;;5101336;28;20622;-68
2023/08/26 04:19:54;;;;;;;45.40;35.07;;;;;;;;;;5093602;28;20599;-67
2023/08/26 04:22:20;;;;;;;36.07;31.90;;;;;;;;;;5092330;28;20525;-68
2023/08/26 04:24:46;;;;;;;43.30;33.30;;;;;;;;;;5102504;28;20527;-67
2023/08/26 04:27:13;;;;;;;45.30;35.60;;;;;;;;;;5102813;28;20442;-66
2023/08/26 04:29:39;;;;;;;37.53;31.87;;;;;;;;;;5098980;28;20669;-66
2023/08/26 04:32:07;;;;;;;40.60;34.03;;;;;;;;;;5099218;28;20542;-67
2023/08/26 04:34:34;;;;;;;38.93;31.47;;;;;;;;;;5101677;28;20558;-67
2023/08/26 04:37:00;;;;;;;35.33;30.43;;;;;;;;;;5101087;28;20489;-68
2023/08/26 04:39:26;;;;;;;38.90;32.20;;;;;;;;;;5098533;28;20541;-68
2023/08/26 04:41:53;;;;;;;38.03;32.03;;;;;;;;;;5103883;28;20531;-67
2023/08/26 04:44:20;;;;;;;38.10;33.27;;;;;;;;;;5098710;28;20463;-66
2023/08/26 04:46:46;;;;;;;39.30;33.40;;;;;;;;;;5094037;28;20527;-67
2023/08/26 04:49:14;;;;;;;41.27;34.30;;;;;;;;;;5094848;28;20468;-67
2023/08/26 04:51:40;;;;;;;39.67;33.57;;;;;;;;;;5086314;28;20534;-68
2023/08/26 04:54:06;;;;;;;41.93;35.07;;;;;;;;;;5093902;28;20554;-67
2023/08/26 04:56:33;;;;;;;41.47;31.33;;;;;;;;;;5106332;28;20450;-66
2023/08/26 04:58:59;;;;;;;36.37;32.13;;;;;;;;;;5101022;28;20467;-66
2023/08/26 05:01:25;;;;;;;41.73;35.57;;;;;;;;;;5091443;28;20442;-67
2023/08/26 05:03:52;;;;;;;38.20;33.47;;;;;;;;;;5090493;28;20525;-67
2023/08/26 05:06:19;;;;;;;29.07;25.20;;;;;;;;;;5086225;28;20503;-68
2023/08/26 05:08:46;;;;;;;29.27;23.50;;;;;;;;;;5090609;28;20524;-67
2023/08/26 05:11:12;;;;;;;21.00;18.50;;;;;;;;;;5096761;28;20478;-67
2023/08/26 05:13:38;;;;;;;18.07;15.77;;;;;;;;;;5093977;28;20479;-66
2023/08/26 05:16:05;;;;;;;13.97;12.53;;;;;;;;;;5099610;28;20570;-67
2023/08/26 05:18:31;;;;;;;13.50;10.43;;;;;;;;;;5101815;28;20501;-66
2023/08/26 05:20:57;;;;;;;10.23;9.13;;;;;;;;;;5092514;28;20466;-67
2023/08/26 05:23:25;;;;;;;9.30;8.40;;;;;;;;;;5090748;28;20539;-67
2023/08/26 05:25:52;;;;;;;10.53;7.90;;;;;;;;;;5100248;28;20514;-67
2023/08/26 05:28:18;;;;;;;8.67;7.30;;;;;;;;;;5099053;28;20486;-67
2023/08/26 05:30:45;;;;;;;8.17;6.73;;;;;;;;;;5101508;28;20530;-66
2023/08/26 05:33:11;;;;;;;10.80;7.13;;;;;;;;;;5103872;28;20526;-67
2023/08/26 05:35:37;;;;;;;8.60;6.80;;;;;;;;;;5093487;28;20483;-67
2023/08/26 05:38:04;;;;;;;7.87;5.90;;;;;;;;;;5083964;28;20457;-67
2023/08/26 05:40:32;;;;;;;5.90;4.60;;;;;;;;;;5088562;28;20451;-68
2023/08/26 05:42:59;;;;;;;6.77;4.57;;;;;;;;;;5101344;28;21236;-67
2023/08/26 05:45:26;;;;;;;7.70;4.20;;;;;;;;;;5094957;28;20515;-68
2023/08/26 05:47:52;;;;;;;5.27;4.57;;;;;;;;;;5090279;28;20472;-67
2023/08/26 05:50:19;;;;;;;4.57;4.10;;;;;;;;;;5094718;28;20469;-67
2023/08/26 05:52:45;;;;;;;6.07;5.40;;;;;;;;;;5101554;28;20457;-69
2023/08/26 05:55:12;;;;;;;5.07;4.23;;;;;;;;;;5086933;28;20485;-68
2023/08/26 05:57:42;;;;;;;9.47;4.47;;;;;;;;;;5097543;28;20498;-68
2023/08/26 06:00:09;;;;;;;4.20;3.80;;;;;;;;;;5101694;28;20527;-68
2023/08/26 06:02:36;;;;;;;5.40;4.27;;;;;;;;;;5096062;28;20465;-68
2023/08/26 06:05:02;;;;;;;6.43;4.23;;;;;;;;;;5100753;28;20471;-67
2023/08/26 06:07:29;;;;;;;6.73;3.97;;;;;;;;;;5109648;28;20492;-67
2023/08/26 06:09:55;;;;;;;3.77;3.40;;;;;;;;;;5108666;28;20497;-68
2023/08/26 06:12:21;;;;;;;6.73;3.90;;;;;;;;;;5101360;28;20474;-68
2023/08/26 06:14:49;;;;;;;6.03;4.20;;;;;;;;;;5094355;28;20551;-68
2023/08/26 06:17:15;;;;;;;5.50;3.80;;;;;;;;;;5100578;28;20457;-68
2023/08/26 06:19:42;;;;;;;5.50;4.00;;;;;;;;;;5093485;28;20548;-68
2023/08/26 06:22:09;;;;;;;4.90;4.10;;;;;;;;;;5105008;28;20464;-68
2023/08/26 06:24:35;;;;;;;4.23;3.80;;;;;;;;;;5096270;28;20498;-67
2023/08/26 06:27:02;;;;;;;6.83;4.50;;;;;;;;;;5101543;28;20447;-68
2023/08/26 06:29:29;;;;;;;9.60;3.90;;;;;;;;;;5101097;28;20521;-69
2023/08/26 06:31:56;;;;;;;6.70;4.00;;;;;;;;;;5109904;28;20455;-69
2023/08/26 06:34:23;;;;;;;5.87;3.57;;;;;;;;;;5094703;28;20542;-68
2023/08/26 06:36:49;;;;;;;6.90;4.00;;;;;;;;;;5102037;28;20824;-69
2023/08/26 06:39:15;;;;;;;7.90;4.23;;;;;;;;;;5101715;28;20531;-68
2023/08/26 06:41:42;;;;;;;6.70;4.00;;;;;;;;;;5100984;28;20485;-68
2023/08/26 06:44:09;;;;;;;7.53;4.10;;;;;;;;;;5095143;28;20455;-68
2023/08/26 06:46:36;;;;;;;5.10;4.03;;;;;;;;;;5103100;28;20469;-68
2023/08/26 06:49:04;;;;;;;9.30;4.37;;;;;;;;;;5097543;28;20466;-67
2023/08/26 06:51:30;;;;;;;7.90;3.73;;;;;;;;;;5098667;28;20455;-70
2023/08/26 06:53:56;;;;;;;6.50;3.93;;;;;;;;;;5099736;28;20455;-68
2023/08/26 06:56:23;;;;;;;8.40;3.73;;;;;;;;;;5100389;28;20481;-68
2023/08/26 06:58:50;;;;;;;6.03;3.90;;;;;;;;;;5101553;28;20455;-68
2023/08/26 07:01:17;;;;;;;5.03;3.93;;;;;;;;;;5090659;28;20949;-68
2023/08/26 07:03:43;;;;;;;6.77;4.20;;;;;;;;;;5087632;28;20534;-68
2023/08/26 07:06:11;;;;;;;9.53;3.93;;;;;;;;;;5103078;28;20541;-67
2023/08/26 07:08:37;;;;;;;6.17;4.00;;;;;;;;;;5104834;28;20478;-68
2023/08/26 07:11:03;;;;;;;7.70;3.67;;;;;;;;;;5099259;28;20483;-68
2023/08/26 07:13:30;;;;;;;6.40;3.60;;;;;;;;;;5095588;28;20466;-68
2023/08/26 07:15:56;;;;;;;4.43;3.57;;;;;;;;;;5092981;28;20494;-69
2023/08/26 07:18:23;;;;;;;6.07;3.63;;;;;;;;;;5100051;28;20473;-67
2023/08/26 07:20:49;;;;;;;4.63;3.73;;;;;;;;;;5092597;28;20524;-66
2023/08/26 07:23:17;;;;;;;4.03;3.37;;;;;;;;;;5096728;28;20490;-66
2023/08/26 07:25:44;;;;;;;5.57;3.60;;;;;;;;;;5098250;28;20515;-66
2023/08/26 07:28:10;;;;;;;4.13;3.80;;;;;;;;;;5093546;28;20550;-67
2023/08/26 07:30:37;;;;;;;6.13;3.50;;;;;;;;;;5089012;28;20466;-67
2023/08/26 07:33:03;;;;;;;5.43;3.93;;;;;;;;;;5105491;28;20493;-67
2023/08/26 07:35:30;;;;;;;7.60;4.20;;;;;;;;;;5097308;28;20497;-66
2023/08/26 07:37:56;;;;;;;6.13;3.70;;;;;;;;;;5098369;28;20921;-67
2023/08/26 07:40:24;;;;;;;4.50;3.60;;;;;;;;;;5098599;28;20482;-66
2023/08/26 07:42:50;;;;;;;3.43;3.13;;;;;;;;;;5091197;28;20490;-67
2023/08/26 07:45:17;;;;;;;6.83;3.30;;;;;;;;;;5091925;28;20870;-67
2023/08/26 07:47:43;;;;;;;6.00;3.27;;;;;;;;;;5095087;28;21017;-67
2023/08/26 07:50:10;;;;;;;5.00;3.10;;;;;;;;;;5095417;28;20541;-67
2023/08/26 07:52:37;;;;;;;3.77;3.33;;;;;;;;;;5096746;28;20491;-66
2023/08/26 07:55:04;;;;;;;7.27;3.90;;;;;;;;;;5100053;28;20522;-67
2023/08/26 07:57:32;;;;;;;4.43;3.33;;;;;;;;;;5100992;28;20517;-67
2023/08/26 07:59:58;;;;;;;4.87;3.63;;;;;;;;;;5100810;28;20939;-67
2023/08/26 08:02:24;;;;;;;4.43;3.40;;;;;;;;;;5097619;28;20530;-67
2023/08/26 08:04:51;;;;;;;4.70;3.47;;;;;;;;;;5097076;28;20454;-67
2023/08/26 08:07:17;;;;;;;5.20;3.40;;;;;;;;;;5097789;28;20447;-68
2023/08/26 08:09:43;;;;;;;6.40;3.63;;;;;;;;;;5092040;28;20490;-67
2023/08/26 08:12:10;;;;;;;5.30;3.60;;;;;;;;;;5093058;28;20959;-68
2023/08/26 08:14:37;;;;;;;5.60;3.50;;;;;;;;;;5089441;28;20784;-67
2023/08/26 08:17:04;;;;;;;6.10;3.40;;;;;;;;;;5092878;28;20475;-67
2023/08/26 08:19:30;;;;;;;3.30;3.00;;;;;;;;;;5097437;28;20498;-67
2023/08/26 08:21:57;;;;;;;3.87;3.47;;;;;;;;;;5098598;28;20546;-67
2023/08/26 08:24:23;;;;;;;6.03;3.47;;;;;;;;;;5095582;28;20455;-68
2023/08/26 08:26:49;;;;;;;5.90;3.20;;;;;;;;;;5096328;28;20511;-67
2023/08/26 08:29:16;;;;;;;3.40;3.10;;;;;;;;;;5097724;28;20574;-67
2023/08/26 08:31:46;;;;;;;4.63;3.20;;;;;;;;;;5099150;28;20510;-66
2023/08/26 08:34:13;;;;;;;6.20;3.60;;;;;;;;;;5098639;28;20518;-66
2023/08/26 08:36:40;;;;;;;5.17;3.80;;;;;;;;;;5101302;28;21680;-67
2023/08/26 08:39:06;;;;;;;3.80;3.40;;;;;;;;;;5092411;28;20482;-66
2023/08/26 08:41:34;;;;;;;7.13;3.90;;;;;;;;;;5102100;28;20450;-66
2023/08/26 08:44:03;;;;;;;3.37;3.07;;;;;;;;;;5096059;28;20486;-66
2023/08/26 08:46:30;;;;;;;4.43;4.03;;;;;;;;;;5100865;28;20507;-67
2023/08/26 08:48:58;;;;;;;3.60;3.30;;;;;;;;;;5091615;28;20515;-68
2023/08/26 08:51:25;;;;;;;4.70;3.57;;;;;;;;;;5098344;28;20594;-68
2023/08/26 08:53:52;;;;;;;4.40;3.10;;;;;;;;;;5094213;28;20478;-68
2023/08/26 08:56:19;;;;;;;4.13;3.30;;;;;;;;;;5100537;28;20566;-67
2023/08/26 08:58:47;;;;;;;3.87;3.53;;;;;;;;;;5103487;28;20538;-68
2023/08/26 09:01:13;;;;;;;3.47;3.17;;;;;;;;;;5101058;28;20446;-68
2023/08/26 09:03:41;;;;;;;6.67;3.53;;;;;;;;;;5097539;28;20465;-67
2023/08/26 09:06:08;;;;;;;4.93;3.80;;;;;;;;;;5097504;28;20525;-68
2023/08/26 09:08:35;;;;;;;6.53;3.60;;;;;;;;;;5097586;28;20946;-67
2023/08/26 09:11:01;;;;;;;4.10;3.60;;;;;;;;;;5096359;28;20821;-67
2023/08/26 09:13:28;;;;;;;3.60;3.00;;;;;;;;;;5103092;28;20447;-66
2023/08/26 09:15:54;;;;;;;6.67;4.07;;;;;;;;;;5102565;28;20581;-67
2023/08/26 09:18:20;;;;;;;4.63;3.60;;;;;;;;;;5101651;28;20457;-67
2023/08/26 09:20:47;;;;;;;3.37;3.07;;;;;;;;;;5096779;28;20526;-66
2023/08/26 09:23:15;;;;;;;5.27;3.87;;;;;;;;;;5097642;28;20462;-67
2023/08/26 09:25:51;;;;;;;7.83;4.17;;;;;;;;;;5097250;28;20463;-66
2023/08/26 09:28:18;;;;;;;3.80;3.40;;;;;;;;;;5097222;28;20486;-67
2023/08/26 09:31:01;;;;;;;6.37;3.87;;;;;;;;;;5098124;28;20521;-68
2023/08/26 09:33:27;;;;;;;4.67;4.00;;;;;;;;;;5095710;28;20865;-67
2023/08/26 09:35:54;;;;;;;4.43;3.97;;;;;;;;;;5097370;28;20483;-67
2023/08/26 09:38:22;;;;;;;4.73;3.73;;;;;;;;;;5094405;28;20451;-68
2023/08/26 09:40:48;;;;;;;3.87;3.50;;;;;;;;;;5100736;28;20458;-67
2023/08/26 09:43:15;;;;;;;5.60;4.30;;;;;;;;;;5094865;28;20467;-67
2023/08/26 09:45:42;;;;;;;4.37;3.50;;;;;;;;;;5101131;28;20479;-67
2023/08/26 09:48:08;;;;;;;6.67;3.47;;;;;;;;;;5101594;28;20862;-67
2023/08/26 09:50:35;;;;;;;4.40;3.27;;;;;;;;;;5100123;28;20473;-67
2023/08/26 09:53:02;;;;;;;4.07;3.70;;;;;;;;;;5096021;28;20482;-67
2023/08/26 09:55:30;;;;;;;3.30;3.10;;;;;;;;;;5100785;28;21058;-67
2023/08/26 09:57:57;;;;;;;6.63;3.67;;;;;;;;;;5104004;28;20486;-67
2023/08/26 10:00:23;;;;;;;4.53;3.40;;;;;;;;;;5101057;28;20454;-67
2023/08/26 10:02:50;;;;;;;3.40;3.10;;;;;;;;;;5096558;28;20956;-67
2023/08/26 10:05:17;;;;;;;5.00;3.10;;;;;;;;;;5102138;28;20534;-67
2023/08/26 10:07:47;;;;;;;5.70;4.10;;;;;;;;;;5101496;28;20451;-66
2023/08/26 10:10:16;;;;;;;3.83;3.50;;;;;;;;;;5096658;28;20452;-67
2023/08/26 10:12:45;;;;;;;3.73;3.27;;;;;;;;;;5095397;28;20745;-67
2023/08/26 10:15:13;;;;;;;3.90;3.30;;;;;;;;;;5101093;28;20455;-69
2023/08/26 10:17:40;;;;;;;6.40;3.30;;;;;;;;;;5095956;28;20573;-67
2023/08/26 10:20:07;;;;;;;3.40;3.10;;;;;;;;;;5107964;28;20834;-67
2023/08/26 10:22:34;;;;;;;3.50;3.20;;;;;;;;;;5108628;28;20498;-67
2023/08/26 10:25:00;;;;;;;3.43;3.10;;;;;;;;;;5092959;28;20499;-67
2023/08/26 10:27:27;;;;;;;4.90;3.10;;;;;;;;;;5091995;28;20506;-66
2023/08/26 10:29:56;;;;;;;3.40;3.03;;;;;;;;;;5106566;28;20488;-68
2023/08/26 10:32:23;;;;;;;5.13;3.20;;;;;;;;;;5101196;28;20516;-68
2023/08/26 10:34:53;;;;;;;5.33;3.70;;;;;;;;;;5099834;28;20455;-67
2023/08/26 10:37:19;;;;;;;4.73;3.73;;;;;;;;;;5098503;28;20479;-67
2023/08/26 10:39:46;;;;;;;4.83;3.30;;;;;;;;;;5102544;28;20486;-67
2023/08/26 10:42:14;;;;;;;5.80;3.50;;;;;;;;;;5102893;28;20529;-67
2023/08/26 10:44:41;;;;;;;4.00;3.70;;;;;;;;;;5104521;28;20482;-68
2023/08/26 10:47:09;;;;;;;6.10;3.90;;;;;;;;;;5100186;28;20452;-68
2023/08/26 10:49:36;;;;;;;5.13;3.07;;;;;;;;;;5093121;28;20468;-67
2023/08/26 10:52:09;;;;;;;3.97;3.57;;;;;;;;;;5102873;28;20455;-67
2023/08/26 10:54:36;;;;;;;7.83;3.83;;;;;;;;;;5100819;28;20526;-67
2023/08/26 10:57:03;;;;;;;6.83;3.80;;;;;;;;;;5099141;28;20497;-66
2023/08/26 10:59:34;;;;;;;5.30;3.70;;;;;;;;;;5099995;28;20542;-67
2023/08/26 11:02:01;;;;;;;4.77;4.03;;;;;;;;;;5099809;28;20952;-67
2023/08/26 11:04:29;;;;;;;4.13;3.70;;;;;;;;;;5104053;28;20488;-68
2023/08/26 11:06:55;;;;;;;4.93;3.50;;;;;;;;;;5096688;28;20459;-68
2023/08/26 11:09:22;;;;;;;7.03;4.00;;;;;;;;;;5098958;28;20542;-67
2023/08/26 11:11:48;;;;;;;4.17;3.77;;;;;;;;;;5103210;28;21003;-68
2023/08/26 11:14:15;;;;;;;4.00;3.70;;;;;;;;;;5099479;28;20518;-67
2023/08/26 11:16:41;;;;;;;4.40;3.67;;;;;;;;;;5098867;28;20518;-66
2023/08/26 11:19:08;;;;;;;4.30;4.00;;;;;;;;;;5092703;28;20522;-66
2023/08/26 11:21:38;;;;;;;4.87;3.73;;;;;;;;;;5100914;28;20512;-66
2023/08/26 11:24:04;;;;;;;6.23;4.00;;;;;;;;;;5099824;28;20463;-67
2023/08/26 11:26:31;;;;;;;5.70;3.57;;;;;;;;;;5103729;28;20646;-69
2023/08/26 11:29:00;;;;;;;4.30;3.53;;;;;;;;;;5097661;28;20951;-68
2023/08/26 11:31:26;;;;;;;3.90;3.60;;;;;;;;;;5098177;28;20440;-68
2023/08/26 11:33:53;;;;;;;7.60;4.20;;;;;;;;;;5103591;28;20546;-67
2023/08/26 11:36:20;;;;;;;3.90;3.60;;;;;;;;;;5096441;28;21094;-66
2023/08/26 11:38:48;;;;;;;4.13;3.70;;;;;;;;;;5086644;28;20455;-68
2023/08/26 11:41:15;;;;;;;3.97;3.57;;;;;;;;;;5087511;28;20440;-67
2023/08/26 11:43:41;;;;;;;5.50;3.73;;;;;;;;;;5084122;28;20463;-68
2023/08/26 11:46:08;;;;;;;3.77;3.47;;;;;;;;;;5103797;28;20550;-67
2023/08/26 11:48:35;;;;;;;3.90;3.60;;;;;;;;;;5088407;28;20903;-67
2023/08/26 11:51:03;;;;;;;4.30;3.90;;;;;;;;;;5093480;28;20492;-67
2023/08/26 11:53:29;;;;;;;5.97;4.10;;;;;;;;;;5100793;28;20463;-67
2023/08/26 11:55:57;;;;;;;4.00;3.60;;;;;;;;;;5094275;28;20557;-67
2023/08/26 11:58:23;;;;;;;4.70;3.73;;;;;;;;;;5097204;28;20527;-67
2023/08/26 12:00:50;;;;;;;4.17;3.60;;;;;;;;;;5095963;28;20486;-67
2023/08/26 12:03:17;;;;;;;4.60;4.20;;;;;;;;;;5098105;28;20744;-67
2023/08/26 12:05:44;;;;;;;3.90;3.50;;;;;;;;;;5098895;28;20458;-67
2023/08/26 12:08:14;;;;;;;5.40;4.00;;;;;;;;;;5095257;28;20470;-67
2023/08/26 12:10:41;;;;;;;3.93;3.50;;;;;;;;;;5097888;28;20458;-67
2023/08/26 12:13:09;;;;;;;4.80;3.60;;;;;;;;;;5095474;28;20517;-67
2023/08/26 12:15:39;;;;;;;4.07;3.60;;;;;;;;;;5091889;28;20472;-66
2023/08/26 12:18:05;;;;;;;4.00;3.60;;;;;;;;;;5097716;28;20594;-66
2023/08/26 12:20:33;;;;;;;3.57;3.27;;;;;;;;;;5101625;28;20486;-67
2023/08/26 12:23:00;;;;;;;4.53;3.90;;;;;;;;;;5094131;28;20512;-67
2023/08/26 12:25:27;;;;;;;4.90;3.73;;;;;;;;;;5096950;28;20955;-67
2023/08/26 12:27:54;;;;;;;4.67;4.13;;;;;;;;;;5098475;28;20471;-67
2023/08/26 12:30:21;;;;;;;4.50;4.10;;;;;;;;;;5098671;28;20453;-67
2023/08/26 12:32:48;;;;;;;4.70;3.80;;;;;;;;;;5097705;28;20443;-67
2023/08/26 12:35:14;;;;;;;3.70;3.37;;;;;;;;;;5098393;28;20479;-67
2023/08/26 12:37:41;;;;;;;3.83;3.50;;;;;;;;;;5098660;28;20563;-66
2023/08/26 12:40:08;;;;;;;4.50;3.40;;;;;;;;;;5083075;28;20490;-66
2023/08/26 12:42:34;;;;;;;3.70;3.40;;;;;;;;;;5089056;28;20459;-68
2023/08/26 12:45:01;;;;;;;3.27;2.97;;;;;;;;;;5096028;28;20442;-67
2023/08/26 12:47:29;;;;;;;3.57;3.27;;;;;;;;;;5085546;28;20439;-66
2023/08/26 12:49:57;;;;;;;3.33;3.13;;;;;;;;;;5088904;28;20493;-67
2023/08/26 12:52:24;;;;;;;5.93;4.07;;;;;;;;;;5094197;28;20443;-67
2023/08/26 12:54:50;;;;;;;3.53;3.33;;;;;;;;;;5090241;28;20768;-67
2023/08/26 12:57:17;;;;;;;4.93;3.37;;;;;;;;;;5087305;28;20486;-68
2023/08/26 12:59:43;;;;;;;5.30;3.40;;;;;;;;;;5089809;28;20510;-68
2023/08/26 13:02:09;;;;;;;3.70;3.40;;;;;;;;;;5098272;28;20956;-68
2023/08/26 13:04:37;;;;;;;3.83;3.53;;;;;;;;;;5085514;28;20558;-69
2023/08/26 13:07:04;;;;;;;4.03;3.60;;;;;;;;;;5082080;28;20507;-66
2023/08/26 13:09:30;;;;;;;3.93;3.33;;;;;;;;;;5097389;28;20550;-66
2023/08/26 13:11:57;;;;;;;5.27;3.50;;;;;;;;;;5091681;28;20451;-66
2023/08/26 13:14:23;;;;;;;4.10;3.73;;;;;;;;;;5089739;28;20543;-66
2023/08/26 13:16:50;;;;;;;4.10;3.37;;;;;;;;;;5093926;28;20494;-67
2023/08/26 13:19:16;;;;;;;3.63;3.33;;;;;;;;;;5096991;28;20480;-66
2023/08/26 13:21:44;;;;;;;4.10;3.80;;;;;;;;;;5101493;28;20514;-67
2023/08/26 13:24:10;;;;;;;3.90;3.70;;;;;;;;;;5099871;28;20482;-66
2023/08/26 13:26:36;;;;;;;4.27;3.40;;;;;;;;;;5097807;28;20578;-68
2023/08/26 13:29:03;;;;;;;3.90;3.60;;;;;;;;;;5093554;28;20919;-66
2023/08/26 13:31:29;;;;;;;4.03;3.70;;;;;;;;;;5101239;28;20446;-67
2023/08/26 13:33:55;;;;;;;3.30;3.10;;;;;;;;;;5097548;28;20515;-68
2023/08/26 13:36:22;;;;;;;4.07;3.13;;;;;;;;;;5101568;28;20447;-66
2023/08/26 13:38:50;;;;;;;4.80;3.23;;;;;;;;;;5098778;28;20489;-68
2023/08/26 13:41:16;;;;;;;3.70;3.40;;;;;;;;;;5099249;28;20515;-68
2023/08/26 13:43:43;;;;;;;4.53;3.20;;;;;;;;;;5091740;28;20734;-69
2023/08/26 13:46:10;;;;;;;3.27;3.07;;;;;;;;;;5098829;28;20450;-68
2023/08/26 13:48:36;;;;;;;3.30;3.10;;;;;;;;;;5082810;28;20506;-68
2023/08/26 13:51:02;;;;;;;4.23;3.60;;;;;;;;;;5098716;28;21033;-68
2023/08/26 13:53:29;;;;;;;3.10;2.90;;;;;;;;;;5095474;28;20470;-67
2023/08/26 13:55:58;;;;;;;3.83;3.37;;;;;;;;;;5089561;28;20963;-67
2023/08/26 13:58:24;;;;;;;3.67;2.90;;;;;;;;;;5102644;28;20489;-68
2023/08/26 14:00:51;;;;;;;2.97;2.77;;;;;;;;;;5094190;28;20523;-68
2023/08/26 14:03:17;;;;;;;2.97;2.77;;;;;;;;;;5095441;28;20602;-68
2023/08/26 14:05:44;;;;;;;3.20;2.63;;;;;;;;;;5109277;28;20454;-68
2023/08/26 14:08:11;;;;;;;3.07;2.43;;;;;;;;;;5092614;28;20454;-67
2023/08/26 14:10:37;;;;;;;3.20;2.70;;;;;;;;;;5097492;28;20532;-67
2023/08/26 14:13:05;;;;;;;3.33;3.00;;;;;;;;;;5091693;28;20478;-68
2023/08/26 14:15:31;;;;;;;5.00;3.27;;;;;;;;;;5089717;28;20450;-69
2023/08/26 14:17:58;;;;;;;4.83;2.90;;;;;;;;;;5094556;28;20581;-68
2023/08/26 14:20:24;;;;;;;2.83;2.63;;;;;;;;;;5095197;28;20450;-68
2023/08/26 14:22:51;;;;;;;5.13;2.20;;;;;;;;;;5097757;28;20491;-68
2023/08/26 14:25:17;;;;;;;2.60;2.40;;;;;;;;;;5097917;28;20443;-69
2023/08/26 14:27:44;;;;;;;3.47;3.13;;;;;;;;;;5087901;28;20551;-69
2023/08/26 14:30:12;;;;;;;2.60;2.40;;;;;;;;;;5089579;28;20566;-70